createdAt,value
2023-09-14T00:01:56.600Z,6.85
2023-09-14T00:04:54.592Z,7.70
2023-09-14T00:07:52.538Z,7.75
2023-09-14T00:11:00.038Z,6.70
2023-09-14T00:13:57.920Z,7.13
2023-09-14T00:16:55.830Z,7.03
2023-09-14T00:19:53.654Z,6.95
2023-09-14T00:22:52.711Z,6.93
2023-09-14T00:25:51.034Z,7.03
2023-09-14T00:28:49.059Z,7.05
2023-09-14T00:31:46.951Z,7.43
2023-09-14T00:34:44.878Z,7.85
2023-09-14T00:37:43.623Z,6.90
2023-09-14T00:40:41.578Z,6.85
2023-09-14T00:43:40.855Z,7.05
2023-09-14T00:46:38.836Z,7.65
2023-09-14T00:49:36.798Z,7.55
2023-09-14T00:52:37.564Z,7.10
2023-09-14T00:55:35.790Z,7.32
2023-09-14T00:58:34.034Z,6.97
2023-09-14T01:01:33.751Z,7.18
2023-09-14T01:04:34.960Z,6.65
2023-09-14T01:07:32.797Z,5.43
2023-09-14T01:10:30.726Z,7.45
2023-09-14T01:13:39.667Z,6.75
2023-09-14T01:16:48.324Z,8.45
2023-09-14T01:19:59.919Z,7.63
2023-09-14T01:23:19.611Z,6.60
2023-09-14T01:26:17.926Z,8.15
2023-09-14T01:29:15.862Z,7.10
2023-09-14T01:32:13.681Z,8.43
2023-09-14T01:35:11.657Z,7.85
2023-09-14T01:38:09.962Z,6.97
2023-09-14T01:41:08.435Z,8.55
2023-09-14T01:44:06.720Z,7.40
2023-09-14T01:47:06.810Z,5.82
2023-09-14T01:50:04.996Z,6.75
2023-09-14T01:53:03.190Z,6.85
2023-09-14T01:56:01.203Z,6.47
2023-09-14T01:58:59.174Z,6.97
2023-09-14T02:01:57.274Z,6.82
2023-09-14T02:04:55.214Z,7.43
2023-09-14T02:07:53.040Z,5.70
2023-09-14T02:10:51.222Z,7.93
2023-09-14T02:13:48.961Z,6.07
2023-09-14T02:16:46.976Z,7.53
2023-09-14T02:19:45.165Z,7.47
2023-09-14T02:22:43.075Z,6.65
2023-09-14T02:25:44.438Z,6.18
2023-09-14T02:28:42.336Z,6.05
2023-09-14T02:31:40.157Z,6.47
2023-09-14T02:34:38.123Z,7.07
2023-09-14T02:37:35.878Z,6.80
2023-09-14T02:40:34.767Z,6.88
2023-09-14T02:43:32.513Z,6.38
2023-09-14T02:46:30.476Z,6.07
2023-09-14T02:49:28.278Z,7.05
2023-09-14T02:52:26.207Z,7.10
2023-09-14T02:55:24.024Z,6.32
2023-09-14T02:58:21.992Z,6.20
2023-09-14T03:01:22.641Z,6.47
2023-09-14T03:04:21.184Z,6.47
2023-09-14T03:07:19.305Z,6.30
2023-09-14T03:10:17.339Z,6.43
2023-09-14T03:13:15.239Z,6.55
2023-09-14T03:16:13.436Z,5.93
2023-09-14T03:19:11.372Z,6.30
2023-09-14T03:22:09.461Z,5.82
2023-09-14T03:25:08.200Z,5.38
2023-09-14T03:28:06.339Z,6.70
2023-09-14T03:31:04.210Z,5.93
2023-09-14T03:34:02.431Z,6.03
2023-09-14T03:37:00.337Z,5.80
2023-09-14T03:39:58.269Z,6.35
2023-09-14T03:42:56.083Z,5.97
2023-09-14T03:45:54.067Z,7.15
2023-09-14T03:48:51.893Z,7.18
2023-09-14T03:51:49.873Z,6.32
2023-09-14T03:54:47.692Z,6.35
2023-09-14T03:57:49.396Z,7.05
2023-09-14T04:00:47.399Z,7.18
2023-09-14T04:03:46.583Z,6.82
2023-09-14T04:06:44.477Z,6.65
2023-09-14T04:09:43.608Z,5.88
2023-09-14T04:12:43.340Z,6.20
2023-09-14T04:15:44.262Z,8.68
2023-09-14T04:18:42.285Z,8.98
2023-09-14T04:21:41.450Z,13.48
2023-09-14T04:24:39.263Z,12.57
2023-09-14T04:27:37.254Z,8.98
2023-09-14T04:30:40.537Z,20.92
2023-09-14T04:33:38.551Z,10.70
2023-09-14T04:36:39.038Z,9.18
2023-09-14T04:39:37.347Z,12.77
2023-09-14T04:42:35.124Z,10.48
2023-09-14T04:45:33.674Z,13.13
2023-09-14T04:48:31.559Z,8.20
2023-09-14T04:51:29.495Z,9.20
2023-09-14T04:54:27.234Z,8.73
2023-09-14T04:57:26.675Z,11.73
2023-09-14T05:00:25.266Z,11.32
2023-09-14T05:03:23.301Z,6.63
2023-09-14T05:06:21.155Z,8.50
2023-09-14T05:09:19.217Z,5.32
2023-09-14T05:12:17.037Z,6.80
2023-09-14T05:15:14.948Z,9.23
2023-09-14T05:18:12.746Z,8.45
2023-09-14T05:21:10.655Z,9.90
2023-09-14T05:24:08.458Z,10.95
2023-09-14T05:27:06.676Z,12.27
2023-09-14T05:30:04.899Z,9.50
2023-09-14T05:33:03.022Z,10.80
2023-09-14T05:36:00.915Z,8.50
2023-09-14T05:38:58.846Z,9.00
2023-09-14T05:41:56.625Z,12.48
2023-09-14T05:44:54.807Z,12.13
2023-09-14T05:47:52.750Z,8.82
2023-09-14T05:50:50.727Z,8.77
2023-09-14T05:53:48.582Z,10.85
2023-09-14T05:56:46.479Z,10.57
2023-09-14T05:59:44.704Z,11.57
2023-09-14T06:02:44.422Z,14.25
2023-09-14T06:05:42.330Z,14.80
2023-09-14T06:08:42.147Z,16.70
2023-09-14T06:11:42.027Z,15.48
2023-09-14T06:14:39.884Z,16.00
2023-09-14T06:17:37.958Z,26.02
2023-09-14T06:20:36.071Z,16.30
2023-09-14T06:23:33.950Z,14.68
2023-09-14T06:26:32.507Z,15.70
2023-09-14T06:29:30.341Z,15.43
2023-09-14T06:32:28.266Z,13.95
2023-09-14T06:35:26.649Z,14.15
2023-09-14T06:38:24.541Z,13.43
2023-09-14T06:41:22.379Z,13.18
2023-09-14T06:44:20.864Z,15.32
2023-09-14T06:47:19.595Z,13.30
2023-09-14T06:50:18.505Z,13.32
2023-09-14T06:53:17.208Z,15.30
2023-09-14T06:56:16.962Z,13.95
2023-09-14T06:59:16.039Z,16.42
2023-09-14T07:02:14.037Z,14.73
2023-09-14T07:05:12.243Z,14.75
2023-09-14T07:08:10.219Z,14.57
2023-09-14T07:11:08.063Z,14.73
2023-09-14T07:14:06.115Z,14.20
2023-09-14T07:17:03.975Z,17.30
2023-09-14T07:20:01.955Z,15.90
2023-09-14T07:23:00.592Z,16.10
2023-09-14T07:25:58.799Z,15.27
2023-09-14T07:28:56.604Z,14.50
2023-09-14T07:31:54.793Z,14.50
2023-09-14T07:34:52.912Z,15.02
2023-09-14T07:37:50.960Z,14.60
2023-09-14T07:40:49.910Z,17.50
2023-09-14T07:43:48.215Z,20.25
2023-09-14T07:46:48.531Z,21.95
2023-09-14T07:49:47.361Z,21.30
2023-09-14T07:52:45.301Z,18.25
2023-09-14T07:55:43.201Z,21.20
2023-09-14T07:58:41.029Z,23.77
2023-09-14T08:01:38.963Z,23.98
2023-09-14T08:04:37.051Z,23.60
2023-09-14T08:07:35.053Z,26.33
2023-09-14T08:10:32.827Z,26.33
2023-09-14T08:13:30.754Z,28.02
2023-09-14T08:16:32.678Z,27.77
2023-09-14T08:19:30.639Z,26.23
2023-09-14T08:22:29.143Z,27.88
2023-09-14T08:25:27.083Z,28.40
2023-09-14T08:28:24.933Z,27.20
2023-09-14T08:31:23.285Z,29.02
2023-09-14T08:34:21.215Z,29.33
2023-09-14T08:37:19.833Z,28.23
2023-09-14T08:40:20.209Z,26.52
2023-09-14T08:43:21.075Z,26.75
2023-09-14T08:46:20.842Z,28.65
2023-09-14T08:49:21.654Z,28.10
2023-09-14T08:52:21.749Z,29.42
2023-09-14T08:55:21.442Z,29.60
2023-09-14T08:58:21.491Z,29.23
2023-09-14T09:01:19.580Z,29.10
2023-09-14T09:04:17.922Z,30.95
2023-09-14T09:07:17.164Z,29.02
2023-09-14T09:10:25.723Z,28.38
2023-09-14T09:13:23.970Z,29.27
2023-09-14T09:16:21.943Z,28.63
2023-09-14T09:19:20.040Z,28.73
2023-09-14T09:22:18.867Z,34.05
2023-09-14T09:25:17.109Z,31.58
2023-09-14T09:28:15.386Z,35.25
2023-09-14T09:31:13.351Z,32.92
2023-09-14T09:34:13.041Z,48.33
2023-09-14T09:37:11.002Z,33.53
2023-09-14T09:40:14.827Z,29.60
2023-09-14T09:43:17.810Z,33.28
2023-09-14T09:46:18.331Z,37.22
2023-09-14T09:49:20.376Z,31.92
2023-09-14T09:52:18.386Z,30.80
2023-09-14T09:55:19.629Z,30.88
2023-09-14T09:58:19.043Z,31.85
2023-09-14T10:01:22.740Z,30.67
2023-09-14T10:04:20.641Z,29.52
2023-09-14T10:07:24.642Z,32.05
2023-09-14T10:10:26.889Z,30.65
2023-09-14T10:13:26.518Z,32.30
2023-09-14T10:16:28.006Z,32.30
2023-09-14T10:19:27.955Z,27.13
2023-09-14T10:22:27.081Z,25.60
2023-09-14T10:25:25.060Z,25.73
2023-09-14T10:28:23.960Z,25.13
2023-09-14T10:31:22.986Z,25.33
2023-09-14T10:34:21.569Z,27.00
2023-09-14T10:37:22.027Z,28.23
2023-09-14T10:40:20.054Z,25.70
2023-09-14T10:43:18.494Z,28.23
2023-09-14T10:46:20.390Z,25.98
2023-09-14T10:49:18.555Z,28.75
2023-09-14T10:52:26.493Z,24.83
2023-09-14T10:55:27.867Z,23.90
2023-09-14T10:58:25.857Z,27.75
2023-09-14T11:01:27.767Z,23.98
2023-09-14T11:04:29.562Z,23.00
2023-09-14T11:07:46.403Z,23.17
2023-09-14T11:10:56.601Z,21.75
2023-09-14T11:13:59.446Z,19.30
2023-09-14T11:17:00.257Z,18.40
2023-09-14T11:20:00.181Z,17.20
2023-09-14T11:23:04.946Z,21.23
2023-09-14T11:26:12.304Z,18.13
2023-09-14T11:29:14.407Z,17.17
2023-09-14T11:32:16.557Z,22.42
2023-09-14T11:35:15.364Z,17.13
2023-09-14T11:38:19.313Z,16.60
2023-09-14T11:41:40.754Z,16.45
2023-09-14T11:44:53.137Z,16.23
2023-09-14T11:47:57.473Z,18.00
2023-09-14T11:50:58.428Z,17.65
2023-09-14T11:54:01.352Z,15.73
2023-09-14T11:57:06.228Z,15.32
2023-09-14T12:00:07.341Z,13.38
2023-09-14T12:03:05.735Z,14.02
2023-09-14T12:06:05.744Z,14.73
2023-09-14T12:09:16.363Z,14.77
2023-09-14T12:12:32.024Z,13.77
2023-09-14T12:15:31.825Z,17.83
2023-09-14T12:18:45.148Z,16.25
2023-09-14T12:21:44.011Z,18.10
2023-09-14T12:24:42.622Z,14.63
2023-09-14T12:27:40.911Z,18.75
2023-09-14T12:30:40.494Z,15.50
2023-09-14T12:33:39.706Z,15.00
2023-09-14T12:36:37.646Z,14.85
2023-09-14T12:39:36.192Z,15.98
2023-09-14T12:42:35.816Z,14.98
2023-09-14T12:45:36.208Z,16.00
2023-09-14T12:48:34.253Z,14.18
2023-09-14T12:51:32.681Z,16.25
2023-09-14T12:54:30.940Z,14.88
2023-09-14T12:57:29.071Z,14.65
2023-09-14T13:00:29.309Z,13.60
2023-09-14T13:03:27.593Z,14.68
2023-09-14T13:06:25.592Z,17.10
2023-09-14T13:09:24.707Z,14.90
2023-09-14T13:12:29.662Z,16.33
2023-09-14T13:15:31.128Z,15.75
2023-09-14T13:18:29.539Z,15.38
2023-09-14T13:21:28.426Z,15.05
2023-09-14T13:24:26.313Z,16.73
2023-09-14T13:27:24.390Z,18.05
2023-09-14T13:30:23.028Z,17.20
2023-09-14T13:33:22.590Z,17.60
2023-09-14T13:36:20.747Z,19.35
2023-09-14T13:39:18.653Z,22.60
2023-09-14T13:42:16.541Z,24.08
2023-09-14T13:45:15.160Z,24.38
2023-09-14T13:48:12.966Z,26.40
2023-09-14T13:51:13.627Z,26.95
2023-09-14T13:54:11.466Z,27.50
2023-09-14T13:57:09.419Z,25.42
2023-09-14T14:00:10.588Z,28.40
2023-09-14T14:03:10.744Z,30.63
2023-09-14T14:06:09.334Z,30.92
2023-09-14T14:09:07.938Z,30.50
2023-09-14T14:12:10.433Z,28.70
2023-09-14T14:15:10.881Z,28.95
2023-09-14T14:18:10.952Z,28.00
2023-09-14T14:21:08.894Z,26.75
2023-09-14T14:24:07.388Z,24.52
2023-09-14T14:27:05.721Z,24.00
2023-09-14T14:30:04.259Z,24.13
2023-09-14T14:33:02.273Z,21.95
2023-09-14T14:36:00.101Z,24.20
2023-09-14T14:38:58.757Z,22.83
2023-09-14T14:41:56.780Z,21.42
2023-09-14T14:44:54.802Z,21.35
2023-09-14T14:47:52.650Z,21.92
2023-09-14T14:50:58.873Z,20.65
2023-09-14T14:53:56.848Z,19.13
2023-09-14T14:56:57.566Z,18.73
2023-09-14T14:59:56.924Z,17.90
2023-09-14T15:02:54.937Z,17.45
2023-09-14T15:05:53.167Z,15.50
2023-09-14T15:08:51.118Z,15.25
2023-09-14T15:11:51.136Z,15.00
2023-09-14T15:14:49.051Z,13.75
2023-09-14T15:17:46.985Z,13.95
2023-09-14T15:20:51.470Z,13.73
2023-09-14T15:23:49.393Z,15.48
2023-09-14T15:26:47.602Z,16.02
2023-09-14T15:29:45.517Z,15.15
2023-09-14T15:32:44.977Z,14.85
2023-09-14T15:35:43.092Z,14.43
2023-09-14T15:38:45.064Z,13.60
2023-09-14T15:41:43.222Z,13.73
2023-09-14T15:44:47.546Z,14.73
2023-09-14T15:47:46.486Z,15.68
2023-09-14T15:50:44.571Z,15.13
2023-09-14T15:53:42.427Z,14.07
2023-09-14T15:56:40.373Z,15.48
2023-09-14T15:59:38.250Z,13.18
2023-09-14T16:02:39.119Z,14.48
2023-09-14T16:05:37.043Z,13.50
2023-09-14T16:08:35.045Z,14.38
2023-09-14T16:11:33.061Z,15.88
2023-09-14T16:14:32.296Z,14.00
2023-09-14T16:17:30.334Z,14.00
2023-09-14T16:20:28.272Z,13.73
2023-09-14T16:23:26.680Z,13.55
2023-09-14T16:26:25.692Z,13.60
2023-09-14T16:29:23.477Z,13.95
2023-09-14T16:32:21.373Z,14.85
2023-09-14T16:35:19.399Z,14.57
2023-09-14T16:38:17.965Z,13.02
2023-09-14T16:41:16.396Z,11.77
2023-09-14T16:44:14.315Z,12.35
2023-09-14T16:47:12.293Z,11.20
2023-09-14T16:50:12.455Z,11.13
2023-09-14T16:53:10.233Z,11.15
2023-09-14T16:56:09.574Z,11.45
2023-09-14T16:59:07.350Z,10.77
2023-09-14T17:02:06.768Z,10.80
2023-09-14T17:05:05.587Z,10.85
2023-09-14T17:08:03.549Z,12.60
2023-09-14T17:11:01.406Z,12.32
2023-09-14T17:13:59.328Z,11.32
2023-09-14T17:16:57.131Z,11.57
2023-09-14T17:19:55.697Z,11.95
2023-09-14T17:22:53.460Z,10.98
2023-09-14T17:25:55.385Z,12.57
2023-09-14T17:28:54.054Z,15.45
2023-09-14T17:31:53.390Z,17.67
2023-09-14T17:34:51.204Z,18.92
2023-09-14T17:37:51.145Z,17.35
2023-09-14T17:40:49.053Z,15.77
2023-09-14T17:43:47.031Z,15.60
2023-09-14T17:46:44.910Z,15.60
2023-09-14T17:49:42.768Z,12.52
2023-09-14T17:52:41.165Z,13.07
2023-09-14T17:55:39.112Z,12.90
2023-09-14T17:58:37.197Z,14.07
2023-09-14T18:01:35.933Z,13.95
2023-09-14T18:04:35.992Z,14.25
2023-09-14T18:07:34.854Z,12.80
2023-09-14T18:10:34.824Z,12.93
2023-09-14T18:13:32.770Z,16.23
2023-09-14T18:16:30.601Z,13.93
2023-09-14T18:19:31.422Z,12.77
2023-09-14T18:22:29.353Z,11.50
2023-09-14T18:25:27.806Z,12.18
2023-09-14T18:28:28.416Z,12.05
2023-09-14T18:31:26.603Z,11.48
2023-09-14T18:34:24.539Z,12.38
2023-09-14T18:37:22.490Z,12.25
2023-09-14T18:40:21.076Z,12.13
2023-09-14T18:43:18.930Z,12.35
2023-09-14T18:46:19.347Z,12.13
2023-09-14T18:49:18.042Z,11.02
2023-09-14T18:52:15.926Z,11.20
2023-09-14T18:55:13.835Z,12.20
2023-09-14T18:58:23.104Z,11.13
2023-09-14T19:01:29.593Z,11.40
2023-09-14T19:04:27.514Z,12.48
2023-09-14T19:07:25.483Z,11.75
2023-09-14T19:10:23.339Z,10.80
2023-09-14T19:13:21.498Z,10.65
2023-09-14T19:16:19.430Z,11.98
2023-09-14T19:19:18.731Z,10.82
2023-09-14T19:22:16.626Z,10.52
2023-09-14T19:25:15.669Z,9.77
2023-09-14T19:28:13.582Z,10.18
2023-09-14T19:31:15.634Z,10.30
2023-09-14T19:34:13.407Z,10.90
2023-09-14T19:37:11.396Z,10.95
2023-09-14T19:40:10.052Z,10.90
2023-09-14T19:43:08.033Z,11.52
2023-09-14T19:46:06.997Z,11.70
2023-09-14T19:49:05.154Z,13.05
2023-09-14T19:52:03.024Z,14.05
2023-09-14T19:55:02.821Z,12.82
2023-09-14T19:58:00.989Z,12.25
2023-09-14T20:00:59.128Z,14.05
2023-09-14T20:03:57.131Z,14.73
2023-09-14T20:06:55.208Z,13.90
2023-09-14T20:09:53.102Z,17.15
2023-09-14T20:12:51.130Z,17.15
2023-09-14T20:15:49.179Z,17.60
2023-09-14T20:18:47.888Z,18.52
2023-09-14T20:21:45.994Z,19.33
2023-09-14T20:24:45.872Z,18.27
2023-09-14T20:27:44.145Z,18.00
2023-09-14T20:30:42.384Z,16.23
2023-09-14T20:33:40.346Z,17.55
2023-09-14T20:36:38.740Z,17.45
2023-09-14T20:39:36.559Z,17.05
2023-09-14T20:42:35.342Z,15.07
2023-09-14T20:45:33.193Z,17.33
2023-09-14T20:48:31.651Z,17.00
2023-09-14T20:51:29.570Z,17.70
2023-09-14T20:54:27.487Z,16.38
2023-09-14T20:57:26.072Z,15.88
2023-09-14T21:00:24.349Z,16.95
2023-09-14T21:03:22.805Z,15.40
2023-09-14T21:06:20.730Z,17.42
2023-09-14T21:09:18.530Z,16.52
2023-09-14T21:12:16.439Z,15.35
2023-09-14T21:15:14.261Z,16.05
2023-09-14T21:18:12.178Z,15.48
2023-09-14T21:21:10.898Z,14.27
2023-09-14T21:24:09.246Z,13.20
2023-09-14T21:27:07.068Z,13.52
2023-09-14T21:30:06.702Z,13.30
2023-09-14T21:33:04.687Z,12.52
2023-09-14T21:36:02.598Z,11.73
2023-09-14T21:39:00.336Z,11.98
2023-09-14T21:41:58.233Z,12.95
2023-09-14T21:44:56.083Z,11.73
2023-09-14T21:47:54.049Z,13.05
2023-09-14T21:50:52.124Z,11.60
2023-09-14T21:53:50.071Z,11.75
2023-09-14T21:56:48.445Z,12.15
2023-09-14T21:59:46.356Z,12.43
2023-09-14T22:02:44.282Z,11.82
2023-09-14T22:05:44.750Z,13.52
2023-09-14T22:08:42.532Z,14.15
2023-09-14T22:11:40.739Z,13.82
2023-09-14T22:14:39.150Z,13.57
2023-09-14T22:17:38.152Z,12.05
2023-09-14T22:20:40.164Z,12.68
2023-09-14T22:23:38.283Z,11.00
2023-09-14T22:26:37.569Z,12.13
2023-09-14T22:29:35.537Z,11.95
2023-09-14T22:32:35.920Z,11.70
2023-09-14T22:35:33.829Z,11.77
2023-09-14T22:38:31.680Z,12.20
2023-09-14T22:41:30.573Z,10.65
2023-09-14T22:44:28.419Z,11.07
2023-09-14T22:47:26.312Z,12.32
2023-09-14T22:50:24.142Z,11.75
2023-09-14T22:53:22.089Z,12.25
2023-09-14T22:56:20.746Z,11.63
2023-09-14T22:59:20.577Z,12.43
2023-09-14T23:02:18.340Z,12.63
2023-09-14T23:05:16.368Z,11.90
2023-09-14T23:08:14.353Z,13.15
2023-09-14T23:11:14.476Z,11.10
2023-09-14T23:14:13.236Z,12.18
2023-09-14T23:17:11.174Z,14.27
2023-09-14T23:20:22.487Z,13.75
2023-09-14T23:23:20.639Z,13.15
2023-09-14T23:26:18.451Z,13.27
2023-09-14T23:29:19.326Z,11.98
2023-09-14T23:32:17.068Z,13.00
2023-09-14T23:35:17.679Z,12.68
2023-09-14T23:38:15.567Z,13.05
2023-09-14T23:41:14.049Z,12.02
2023-09-14T23:44:13.723Z,11.15
2023-09-14T23:47:11.685Z,11.40
2023-09-14T23:50:13.860Z,11.98
2023-09-14T23:53:12.467Z,12.17
2023-09-14T23:56:10.382Z,11.55
2023-09-14T23:59:11.374Z,11.32
